Aviation Digital Data Service (ADDS)

Output produced by METARs form (2107 UTC 24 March 2019)
found at http://www.aviationweather.gov/metar/data/
 
KDAB 241720Z 2418/2518 10009KT P6SM FEW045 BKN250 
     FM250000 VRB03KT P6SM FEW050 SCT250 
     FM251500 18007KT P6SM FEW050 SCT250
       
KDAG 241720Z 2418/2518 27011KT P6SM SKC 
     FM241900 04006KT P6SM SKC 
     FM250200 VRB05KT P6SM SCT250 
     FM251200 27007KT P6SM SCT250
       
KDAL 242100Z 2421/2518 19012KT P6SM VCSH SCT040 BKN250 
     FM250100 21008KT P6SM VCTS BKN050CB 
     TEMPO 2502/2504 34020G30KT 2SM TSRA BKN028CB 
     FM250430 34009KT P6SM SCT040 BKN080 
     FM250900 02011KT P6SM SCT100 BKN250 
     FM251500 36013KT P6SM SKC
       
KDAN 241730Z 2418/2518 22010G20KT P6SM SCT180 
     FM242300 21007KT P6SM BKN150 
     FM251200 VRB04KT P6SM BKN060 
     FM251400 23005KT P6SM BKN050 
     FM251700 23007KT P6SM OVC050
       
KDAY 241747Z 2418/2518 21008KT P6SM OVC080 
     FM241900 21008KT P6SM -SHRA OVC060 
     FM242200 VRB03KT P6SM VCSH OVC040 
     FM250400 05006KT P6SM -RA OVC025 
     FM251200 04014G20KT P6SM OVC015
       
KDBQ 241922Z 2419/2518 06007KT 5SM BR SCT010 BKN025 
     TEMPO 2419/2422 BKN008 
     FM250200 04015G22KT 5SM -RA BR BKN008 OVC015 
     FM250500 03014KT P6SM SCT015 BKN025 
     FM250900 04012KT P6SM BKN050
       
KDCA 242053Z 2421/2524 20009KT P6SM FEW140 SCT250 
     FM250000 18005KT P6SM SCT150 BKN250 
     FM251300 35004KT P6SM BKN050 
     FM251800 03006KT P6SM -RA OVC040 
     FM252200 03008KT 5SM -RA OVC030
       
KDDC 242105Z 2421/2518 35012KT P6SM SCT030 SCT250 
     FM250600 02008KT P6SM OVC100 
     FM251200 02008KT P6SM OVC010 
     FM251500 VRB06KT P6SM BKN020
       
KDEC 241720Z 2418/2518 15007KT 5SM -SHRA BR SCT025 BKN045 
     FM242100 15007KT P6SM VCTS SCT025CB BKN045 
     FM250200 07006KT P6SM VCSH OVC027 
     FM250400 06006KT P6SM VCSH OVC015 
     FM250900 03014KT P6SM OVC013 
     FM251700 03013KT P6SM SCT020
       
KDEN 242059Z 2421/2524 07010KT P6SM FEW090 SCT130 BKN200 
     FM242200 07010KT P6SM VCTS SCT050CB BKN080 OVC120 
     TEMPO 2422/2502 VRB15G25KT -SHRA BKN040 
     FM250200 14007KT P6SM VCSH SCT050 BKN080 
     FM250400 18007KT P6SM FEW080 SCT150 
     FM250800 21008KT P6SM FEW150 SCT220 
     FM251700 32008KT P6SM FEW140 SCT200
       
KDET 241720Z 2418/2518 22008KT P6SM SCT070 OVC120 
     FM242000 24011KT P6SM BKN050 OVC100 
     FM250300 02012G20KT P6SM BKN028 OVC060 
     FM250700 01012KT P6SM SCT040 
     FM251400 35010KT P6SM SKC
       
KDFW 242100Z 2421/2524 19012KT P6SM VCSH SCT040 BKN250 
     FM250100 21008KT P6SM VCTS BKN050CB 
     TEMPO 2502/2504 34020G30KT 2SM TSRA BKN028CB 
     FM250430 34009KT P6SM SCT040 BKN080 
     FM250900 02011KT P6SM SCT100 BKN250 
     FM251500 36013KT P6SM SKC
       
KDHN 241720Z 2418/2518 17007KT P6SM SCT250 
     FM250000 21004KT P6SM SCT250 
     FM250900 00000KT 3SM BR SCT002 
     FM251300 21005KT P6SM SCT250
       
KDHT 241720Z 2418/2518 VRB06KT P6SM SCT200 
     FM250200 09008KT P6SM SCT200 
     FM250700 03006KT P6SM FEW100 
     FM251100 36006KT 2SM BR BKN010
       
KDIK 242102Z 2421/2518 08010KT 1/2SM FG VV002 
     FM250900 12009KT 1SM BR VCSH OVC003 
     FM251700 14008KT P6SM OVC007
       
TAF AMD KDLF 241945Z 2419/2524 14006KT 9999 BKN015 QNH3004INS 
     BECMG 2420/2421 14006KT 9999 BKN025 QNH3001INS 
     BECMG 2421/2422 13006KT 9999 FEW030 QNH2992INS 
     BECMG 2507/2508 10006KT 9999 BKN015 QNH3000INS 
     BECMG 2509/2510 12006KT 8000 BR BKN008 QNH3001INS 
     BECMG 2512/2513 13006KT 6000 BR BKN004 QNH3005INS 
     BECMG 2516/2517 10006KT 9999 NSW BKN015 QNH3012INS 
     BECMG 2517/2518 10006KT 9999 BKN025 QNH3010INS 
     BECMG 2518/2519 09006KT 9999 FEW030 QNH3003INS TX25/2422Z TN18/2512Z
       
KDLH 242046Z 2421/2518 08015KT P6SM SCT018 
     FM250100 06008KT P6SM SKC 
     FM250600 33003KT P6SM SCT250 
     FM251500 32006KT P6SM SCT250
       
KDLS 241720Z 2418/2518 32009KT P6SM VCSH SCT060 BKN090 
     FM242100 32009KT P6SM SCT050 BKN250 
     FM250000 VRB04KT P6SM SCT180 
     FM250900 08006KT P6SM BKN150 
     FM251400 VRB06KT P6SM SCT080 BKN100 
     FM251700 VRB05KT P6SM VCSH SCT060 BKN080
       
TAF KDMA 241400Z 2414/2520 15009KT 9999 FEW200 QNH3008INS 
     BECMG 2419/2420 28009KT 9999 SKC QNH3012INS 
     BECMG 2512/2513 10009KT 9999 FEW250 QNH3011INS TX25/2423Z TN06/2414Z
       
KDMN 241741Z 2418/2518 27013G22KT P6SM FEW250 
     FM250100 29007KT P6SM SKC 
     FM250800 34005KT P6SM FEW250 
     FM251400 04009KT P6SM SCT250
       
KDNL 241726Z 2418/2518 20010G15KT P6SM SCT050 SCT250 
     FM250100 18004KT P6SM SCT050 BKN250 WS015/22025KT 
     TEMPO 2510/2513 5SM BR BKN006 
     FM251500 22012G18KT P6SM BKN035
       
TAF KDOV 241600Z 2416/2522 24012KT 9999 SCT180 QNH3009INS 
     BECMG 2505/2506 28009KT 9999 BKN120 QNH3007INS 
     BECMG 2511/2512 VRB06KT 9999 OVC020 620755 QNH3010INS 
     BECMG 2519/2520 03006KT 8000 -RA OVC015 620659 QNH3009INS TX14/2416Z
TN08/2516Z
       
KDPA 241727Z 2418/2518 VRB03KT P6SM -SHRA OVC025 
     TEMPO 2418/2421 4SM -RA BR BKN020 
     FM242200 05009KT P6SM VCSH OVC018 
     FM250000 04013G23KT 6SM BR OVC015 
     TEMPO 2500/2503 3SM -RA BR SCT007 OVC012 
     FM251000 03015G25KT P6SM SCT018
       
KDRO 241740Z 2418/2518 24007KT P6SM VCSH FEW050 SCT100 
     FM242000 26017G26KT P6SM FEW070 SCT150 
     FM250300 33007KT P6SM FEW250 
     FM251200 02005KT P6SM SKC
       
KDRT 241741Z 2418/2518 13005KT P6SM OVC012 
     FM242000 13008KT P6SM BKN025 
     FM242200 14009KT P6SM SCT035 
     FM250200 11007KT P6SM BKN250 
     FM250900 10004KT P6SM OVC012 
     FM251200 09005KT P6SM OVC007
       
KDSM 241725Z 2418/2518 VRB06KT 4SM -RA BR OVC004 
     FM242000 04007KT 5SM BR VCSH OVC010 
     FM250000 03010KT P6SM OVC012
       
KDTW 242053Z 2421/2524 22011KT P6SM SCT045 OVC100 
     FM250300 02012G20KT P6SM BKN028 OVC060 
     FM250700 01012KT P6SM SCT040 
     FM251400 35010KT P6SM SKC
       
KDUG 241720Z 2418/2518 VRB04KT P6SM FEW250 
     FM242000 28009KT P6SM SCT250 
     FM250200 35008KT P6SM SCT250 
     FM250800 VRB04KT P6SM SCT250
       
KDUJ 241720Z 2418/2518 23009KT P6SM SCT120 BKN200 
     FM250900 35004KT P6SM BKN025 
     FM251400 03006KT P6SM BKN050 
     FM251700 01006KT P6SM SCT250
       
KDVL 241739Z 2418/2518 03019KT P6SM SKC 
     FM250100 04006KT P6SM FEW150 
     FM250900 VRB03KT 5SM BR FEW100
       
KDVT 241720Z 2418/2518 16005KT P6SM FEW250 
     FM241900 23005KT P6SM FEW250 
     FM250300 VRB04KT P6SM SKC
       
TAF AMD KDYS 241730Z 2417/2522 22009KT 9999 FEW250 QNH2991INS 
     BECMG 2422/2423 03006KT 9999 SKC QNH2993INS TX26/2420Z TN10/2513Z